Airfield :
LOGIN :

Register | Disclaimer

   EN    FR    IT 

 










Legend :    VFR   Marginal VFR   IFR   Intensive IFR   Very Intensive IFR
Visi :
Ceiling :
>= 8 km
>= 3000ft
5 to 8 km
1000 to 3000 ft
1500m to 5 km
500 to 1000 ft
800 to 1500m
200 to 500 ft
< 800m
< 200 ft
Symbols :   Thunderstorms  Fog  Heavy snow  Heavy precipitations  Wind > 20 kt
SIGMETs :     Misc.  Thunderstorms  Icing  Turbulence  Mountain Waves  Volcanic Ashes






- Airport Elevation : 124 ft
- IATA code : NHT


EGWU - RAF Northolt

CURRENT METAR :
  • 200150Z AUTO 31004KT 8000 // OVC120/// M00/M01 Q1048

EXPIRED METARs :
  • 200050Z AUTO 33003KT 8000 // OVC110/// M00/M01 Q1049
  • 192350Z AUTO 32002KT 8000 // BKN120/// BKN190/// M01/M01 Q1049

TAF TAF EGWU
Valid from the 19 at 21:00 until the 20 at 15:00 UTC


191923Z 1921/2015 VRB02KT CAVOK
BECMG 1921/1923 7000 MIFG BR
PROB40 1923/2009 4000
PROB30
TEMPO 2000/2009 0300 FZFG
BECMG 2009/2012 9999 NSW



MET'MAP, your aeronautical weather chart ! - Copyright ORBIFLY December 2007 - Disclaimer

ORBIFLY MET'MAP TEAM :

Programming & Development : Alexandra Zaïnal
Concept & original design : Baudouin d'Aumeries
Assistance for programming : Marc-Olivier Méhu
Technical & hardware support : Manuel Goepfert

Contact : metmap@orbifly.com




SOURCES & CREDITS :

   NOAA